createdAt,value
2023-04-18T00:01:44.682Z,99936.91
2023-04-18T00:04:13.986Z,99936.34
2023-04-18T00:06:41.753Z,99938.44
2023-04-18T00:09:09.042Z,99936.09
2023-04-18T00:11:36.497Z,99941.97
2023-04-18T00:14:06.335Z,99933.09
2023-04-18T00:16:33.637Z,99943.69
2023-04-18T00:19:02.387Z,99938.94
2023-04-18T00:21:30.172Z,99947.28
2023-04-18T00:23:57.560Z,99940.06
2023-04-18T00:26:24.919Z,99943.94
2023-04-18T00:28:53.596Z,99946.28
2023-04-18T00:31:20.732Z,99939.22
2023-04-18T00:33:48.190Z,99942.56
2023-04-18T00:36:15.834Z,99946.34
2023-04-18T00:38:42.955Z,99945.91
2023-04-18T00:41:10.284Z,99941.72
2023-04-18T00:43:38.544Z,99943.13
2023-04-18T00:46:06.373Z,99942.97
2023-04-18T00:48:34.138Z,99935.91
2023-04-18T00:51:01.950Z,99943.53
2023-04-18T00:53:29.500Z,99939.50
2023-04-18T00:55:57.400Z,99940.94
2023-04-18T00:58:24.848Z,99935.75
2023-04-18T01:00:52.230Z,99938.13
2023-04-18T01:03:20.009Z,99936.22
2023-04-18T01:05:47.245Z,99938.00
2023-04-18T01:08:14.642Z,99924.06
2023-04-18T01:10:42.108Z,99923.94
2023-04-18T01:13:16.031Z,99923.34
2023-04-18T01:15:45.181Z,99934.81
2023-04-18T01:18:13.358Z,99930.03
2023-04-18T01:20:45.860Z,99930.63
2023-04-18T01:23:16.388Z,99943.69
2023-04-18T01:25:44.459Z,99935.19
2023-04-18T01:28:13.790Z,99936.47
2023-04-18T01:30:41.482Z,99940.06
2023-04-18T01:33:08.779Z,99940.37
2023-04-18T01:35:36.068Z,99934.94
2023-04-18T01:38:03.596Z,99939.94
2023-04-18T01:40:30.773Z,99942.59
2023-04-18T01:42:57.915Z,99942.88
2023-04-18T01:45:25.501Z,99955.25
2023-04-18T01:47:52.748Z,99940.25
2023-04-18T01:50:20.009Z,99940.50
2023-04-18T01:52:48.130Z,99940.37
2023-04-18T01:55:16.367Z,99930.91
2023-04-18T01:57:44.214Z,99937.44
2023-04-18T02:00:12.403Z,99939.50
2023-04-18T02:02:41.758Z,99936.31
2023-04-18T02:05:09.567Z,99930.06
2023-04-18T02:07:38.692Z,99941.50
2023-04-18T02:10:06.627Z,99940.94
2023-04-18T02:12:34.405Z,99947.50
2023-04-18T02:15:01.803Z,99940.81
2023-04-18T02:17:29.449Z,99936.88
2023-04-18T02:19:56.676Z,99938.13
2023-04-18T02:22:26.054Z,99942.34
2023-04-18T02:24:53.751Z,99938.97
2023-04-18T02:27:20.958Z,99941.63
2023-04-18T02:29:48.130Z,99942.03
2023-04-18T02:32:15.597Z,99940.06
2023-04-18T02:34:44.444Z,99944.81
2023-04-18T02:37:11.611Z,99942.72
2023-04-18T02:39:40.179Z,99941.34
2023-04-18T02:42:07.413Z,99946.34
2023-04-18T02:44:34.588Z,99951.50
2023-04-18T02:47:02.109Z,99958.59
2023-04-18T02:49:30.166Z,99948.72
2023-04-18T02:51:58.239Z,99960.28
2023-04-18T02:54:25.664Z,99955.25
2023-04-18T02:56:54.500Z,99957.66
2023-04-18T02:59:22.280Z,99974.50
2023-04-18T03:01:52.559Z,99976.28
2023-04-18T03:04:20.309Z,99983.28
2023-04-18T03:06:49.046Z,99982.28
2023-04-18T03:09:18.094Z,99987.72
2023-04-18T03:11:47.485Z,99978.25
2023-04-18T03:14:15.629Z,99984.59
2023-04-18T03:16:44.041Z,99978.56
2023-04-18T03:19:12.635Z,99979.66
2023-04-18T03:21:39.970Z,99977.84
2023-04-18T03:24:10.224Z,99980.56
2023-04-18T03:26:39.404Z,99978.63
2023-04-18T03:29:09.781Z,99985.28
2023-04-18T03:31:37.428Z,99983.59
2023-04-18T03:34:04.553Z,99981.25
2023-04-18T03:36:32.209Z,99985.56
2023-04-18T03:38:59.726Z,99981.09
2023-04-18T03:41:27.091Z,99979.00
2023-04-18T03:43:55.128Z,99976.66
2023-04-18T03:46:23.005Z,99980.53
2023-04-18T03:48:50.735Z,99976.91
2023-04-18T03:51:17.815Z,99977.87
2023-04-18T03:53:46.628Z,99970.53
2023-04-18T03:56:13.871Z,99976.66
2023-04-18T03:58:42.203Z,99976.38
2023-04-18T04:01:09.620Z,99977.25
2023-04-18T04:03:37.520Z,99971.72
2023-04-18T04:06:05.502Z,99972.84
2023-04-18T04:08:33.853Z,99984.56
2023-04-18T04:11:01.978Z,99980.38
2023-04-18T04:13:29.497Z,99980.69
2023-04-18T04:15:57.299Z,99995.16
2023-04-18T04:18:31.011Z,99994.06
2023-04-18T04:20:59.259Z,99988.53
2023-04-18T04:23:27.950Z,99990.47
2023-04-18T04:25:56.001Z,99986.44
2023-04-18T04:28:24.683Z,99992.16
2023-04-18T04:30:53.246Z,99998.97
2023-04-18T04:33:22.171Z,99998.56
2023-04-18T04:35:49.859Z,99997.84
2023-04-18T04:38:20.069Z,99996.91
2023-04-18T04:40:47.588Z,99998.56
2023-04-18T04:43:15.736Z,100002.75
2023-04-18T04:45:44.740Z,100011.09
2023-04-18T04:48:12.528Z,99999.25
2023-04-18T04:50:41.897Z,100015.53
2023-04-18T04:53:11.901Z,100019.03
2023-04-18T04:55:39.511Z,100014.72
2023-04-18T04:58:07.267Z,100015.81
2023-04-18T05:00:35.292Z,100004.97
2023-04-18T05:03:02.638Z,100016.13
2023-04-18T05:05:30.491Z,100020.00
2023-04-18T05:07:58.128Z,100019.75
2023-04-18T05:10:25.612Z,100020.16
2023-04-18T05:12:52.856Z,100024.75
2023-04-18T05:15:20.859Z,100023.63
2023-04-18T05:17:48.106Z,100027.13
2023-04-18T05:20:16.092Z,100033.09
2023-04-18T05:22:43.500Z,100038.69
2023-04-18T05:25:10.754Z,100038.09
2023-04-18T05:27:38.227Z,100033.50
2023-04-18T05:30:06.457Z,100046.47
2023-04-18T05:32:33.750Z,100044.47
2023-04-18T05:35:00.917Z,100046.63
2023-04-18T05:37:28.363Z,100048.97
2023-04-18T05:39:55.557Z,100047.66
2023-04-18T05:42:23.024Z,100048.19
2023-04-18T05:44:50.635Z,100042.78
2023-04-18T05:47:17.953Z,100051.53
2023-04-18T05:49:45.128Z,100049.47
2023-04-18T05:52:12.669Z,100052.66
2023-04-18T05:54:39.835Z,100054.56
2023-04-18T05:57:06.904Z,100049.81
2023-04-18T05:59:34.547Z,100055.81
2023-04-18T06:02:02.081Z,100051.91
2023-04-18T06:04:29.879Z,100053.44
2023-04-18T06:06:57.170Z,100053.03
2023-04-18T06:09:24.329Z,100053.47
2023-04-18T06:11:51.764Z,100060.28
2023-04-18T06:14:18.870Z,100066.38
2023-04-18T06:16:46.103Z,100062.19
2023-04-18T06:19:13.514Z,100069.56
2023-04-18T06:21:42.820Z,100061.19
2023-04-18T06:24:10.535Z,100054.00
2023-04-18T06:26:38.135Z,100070.00
2023-04-18T06:29:05.341Z,100071.84
2023-04-18T06:31:32.638Z,100071.44
2023-04-18T06:34:00.096Z,100064.84
2023-04-18T06:36:27.558Z,100083.22
2023-04-18T06:38:54.848Z,100085.66
2023-04-18T06:41:22.883Z,100074.72
2023-04-18T06:44:02.613Z,100072.31
2023-04-18T06:46:32.805Z,100087.09
2023-04-18T06:49:00.563Z,100081.59
2023-04-18T06:51:28.052Z,100080.63
2023-04-18T06:53:55.718Z,100088.88
2023-04-18T06:56:23.006Z,100088.91
2023-04-18T06:58:50.212Z,100089.25
2023-04-18T07:01:20.370Z,100087.34
2023-04-18T07:03:47.755Z,100084.16
2023-04-18T07:06:15.334Z,100087.91
2023-04-18T07:08:42.808Z,100093.41
2023-04-18T07:11:11.622Z,100093.34
2023-04-18T07:13:38.958Z,100089.66
2023-04-18T07:16:07.311Z,100098.66
2023-04-18T07:18:37.945Z,100095.00
2023-04-18T07:21:09.198Z,100100.22
2023-04-18T07:23:36.898Z,100094.47
2023-04-18T07:26:05.859Z,100100.56
2023-04-18T07:28:33.308Z,100104.06
2023-04-18T07:31:03.194Z,100100.50
2023-04-18T07:33:33.961Z,100108.13
2023-04-18T07:36:01.917Z,100098.03
2023-04-18T07:38:30.318Z,100111.97
2023-04-18T07:41:01.926Z,100106.13
2023-04-18T07:43:29.474Z,100115.78
2023-04-18T07:45:56.694Z,100108.63
2023-04-18T07:48:25.253Z,100111.63
2023-04-18T07:50:53.372Z,100129.28
2023-04-18T07:53:20.759Z,100129.22
2023-04-18T07:55:48.197Z,100120.47
2023-04-18T07:58:17.090Z,100122.19
2023-04-18T08:00:45.038Z,100125.50
2023-04-18T08:03:13.231Z,100123.16
2023-04-18T08:05:42.317Z,100130.16
2023-04-18T08:08:11.501Z,100125.16
2023-04-18T08:10:39.416Z,100124.16
2023-04-18T08:13:06.974Z,100128.72
2023-04-18T08:15:34.337Z,100126.56
2023-04-18T08:18:02.298Z,100127.91
2023-04-18T08:20:29.526Z,100132.50
2023-04-18T08:23:06.878Z,100133.00
2023-04-18T08:25:36.618Z,100134.19
2023-04-18T08:31:35.240Z,100144.97
2023-04-18T08:34:04.977Z,100140.75
2023-04-18T08:36:32.416Z,100152.75
2023-04-18T08:38:59.766Z,100157.12
2023-04-18T08:41:28.805Z,100139.16
2023-04-18T08:43:57.153Z,100138.69
2023-04-18T08:46:24.586Z,100140.19
2023-04-18T08:48:52.657Z,100143.34
2023-04-18T08:51:22.639Z,100138.03
2023-04-18T08:53:50.777Z,100123.03
2023-04-18T08:56:22.416Z,100138.81
2023-04-18T08:58:50.664Z,100149.69
2023-04-18T09:01:18.428Z,100149.84
2023-04-18T09:03:45.750Z,100146.47
2023-04-18T09:06:18.779Z,100141.28
2023-04-18T09:09:02.794Z,100156.34
2023-04-18T09:11:31.831Z,100142.97
2023-04-18T09:13:59.600Z,100147.66
2023-04-18T09:19:56.783Z,100141.03
2023-04-18T09:22:24.363Z,100147.19
2023-04-18T09:24:55.557Z,100154.84
2023-04-18T09:30:42.347Z,100145.50
2023-04-18T09:36:41.049Z,100151.38
2023-04-18T09:39:09.311Z,100144.56
2023-04-18T09:41:36.696Z,100151.28
2023-04-18T09:44:17.218Z,100146.13
2023-04-18T09:46:47.443Z,100145.09
2023-04-18T09:49:16.187Z,100142.78
2023-04-18T09:51:44.539Z,100145.94
2023-04-18T09:54:15.959Z,100154.81
2023-04-18T09:56:44.655Z,100147.78
2023-04-18T09:59:12.955Z,100140.84
2023-04-18T10:01:41.312Z,100140.56
2023-04-18T10:04:09.822Z,100150.06
2023-04-18T10:06:39.866Z,100143.09
2023-04-18T10:09:08.708Z,100145.59
2023-04-18T10:11:36.668Z,100136.91
2023-04-18T10:14:07.175Z,100139.72
2023-04-18T10:16:37.939Z,100132.75
2023-04-18T10:19:25.242Z,100141.09
2023-04-18T10:22:07.436Z,100137.66
2023-04-18T10:25:16.297Z,100147.97
2023-04-18T10:27:50.116Z,100142.28
2023-04-18T10:30:19.215Z,100133.06
2023-04-18T10:32:46.835Z,100138.13
2023-04-18T10:35:15.999Z,100142.22
2023-04-18T10:37:52.998Z,100139.97
2023-04-18T10:40:34.535Z,100132.41
2023-04-18T10:43:02.105Z,100137.16
2023-04-18T10:45:32.566Z,100140.72
2023-04-18T10:48:23.115Z,100143.69
2023-04-18T10:51:13.392Z,100133.91
2023-04-18T10:53:51.110Z,100130.28
2023-04-18T10:56:18.902Z,100143.75
2023-04-18T10:58:52.563Z,100130.12
2023-04-18T11:01:31.754Z,100124.97
2023-04-18T11:04:00.425Z,100127.06
2023-04-18T11:09:11.777Z,100123.00
2023-04-18T11:11:39.861Z,100129.34
2023-04-18T11:14:07.268Z,100119.50
2023-04-18T11:16:35.098Z,100123.56
2023-04-18T11:19:23.716Z,100126.00
2023-04-18T11:21:51.868Z,100118.75
2023-04-18T11:24:24.541Z,100121.97
2023-04-18T11:26:56.042Z,100131.19
2023-04-18T11:29:23.981Z,100126.22
2023-04-18T11:31:55.278Z,100133.31
2023-04-18T11:34:30.699Z,100142.16
2023-04-18T11:36:58.009Z,100142.88
2023-04-18T11:39:26.082Z,100137.62
2023-04-18T11:41:55.885Z,100134.78
2023-04-18T11:44:24.911Z,100138.53
2023-04-18T11:46:53.486Z,100139.19
2023-04-18T11:49:32.139Z,100128.84
2023-04-18T11:52:00.095Z,100127.84
2023-04-18T11:54:40.699Z,100137.94
2023-04-18T11:57:20.657Z,100131.06
2023-04-18T11:59:50.171Z,100127.00
2023-04-18T12:02:18.077Z,100125.50
2023-04-18T12:04:58.863Z,100119.59
2023-04-18T12:07:40.440Z,100130.69
2023-04-18T12:10:10.133Z,100121.34
2023-04-18T12:12:37.327Z,100123.19
2023-04-18T12:15:09.534Z,100124.75
2023-04-18T12:17:38.527Z,100120.00
2023-04-18T12:20:12.595Z,100121.81
2023-04-18T12:22:49.096Z,100123.59
2023-04-18T12:25:27.122Z,100126.06
2023-04-18T12:27:59.036Z,100118.78
2023-04-18T12:30:31.070Z,100120.34
2023-04-18T12:33:01.160Z,100125.34
2023-04-18T12:35:32.132Z,100122.63
2023-04-18T12:38:01.269Z,100123.13
2023-04-18T12:40:29.877Z,100121.00
2023-04-18T12:42:57.209Z,100124.41
2023-04-18T12:45:25.215Z,100118.66
2023-04-18T12:47:53.429Z,100119.28
2023-04-18T12:50:25.347Z,100124.78
2023-04-18T12:52:54.549Z,100118.03
2023-04-18T12:55:22.901Z,100124.78
2023-04-18T12:57:54.301Z,100120.66
2023-04-18T13:00:24.947Z,100112.78
2023-04-18T13:02:52.901Z,100127.25
2023-04-18T13:05:22.388Z,100110.00
2023-04-18T13:07:56.220Z,100108.31
2023-04-18T13:10:32.671Z,100109.06
2023-04-18T13:13:00.551Z,100114.81
2023-04-18T13:15:27.837Z,100111.06
2023-04-18T13:17:56.699Z,100116.59
2023-04-18T13:20:24.590Z,100111.75
2023-04-18T13:22:51.806Z,100113.03
2023-04-18T13:25:18.969Z,100114.22
2023-04-18T13:27:46.703Z,100128.06
2023-04-18T13:30:13.993Z,100124.56
2023-04-18T13:32:43.196Z,100120.06
2023-04-18T13:35:11.600Z,100120.53
2023-04-18T13:37:39.663Z,100121.06
2023-04-18T13:40:08.063Z,100115.06
2023-04-18T13:42:39.542Z,100122.91
2023-04-18T13:45:07.506Z,100122.03
2023-04-18T13:47:37.860Z,100123.13
2023-04-18T13:50:10.031Z,100123.88
2023-04-18T13:52:37.591Z,100118.78
2023-04-18T13:55:05.336Z,100116.16
2023-04-18T13:57:36.370Z,100115.16
2023-04-18T14:00:06.473Z,100111.63
2023-04-18T14:02:39.065Z,100109.81
2023-04-18T14:05:07.551Z,100111.87
2023-04-18T14:07:35.831Z,100106.13
2023-04-18T14:10:03.345Z,100101.34
2023-04-18T14:12:31.425Z,100105.88
2023-04-18T14:14:58.676Z,100107.94
2023-04-18T14:17:26.079Z,100105.06
2023-04-18T14:19:53.648Z,100105.34
2023-04-18T14:22:20.892Z,100106.88
2023-04-18T14:24:51.150Z,100105.56
2023-04-18T14:27:18.874Z,100104.38
2023-04-18T14:29:46.486Z,100115.19
2023-04-18T14:32:13.755Z,100105.09
2023-04-18T14:34:41.225Z,100110.06
2023-04-18T14:37:08.573Z,100100.47
2023-04-18T14:39:36.264Z,100108.47
2023-04-18T14:42:03.941Z,100109.00
2023-04-18T14:44:31.634Z,100117.75
2023-04-18T14:46:58.874Z,100121.34
2023-04-18T14:49:26.468Z,100109.38
2023-04-18T14:51:56.539Z,100118.63
2023-04-18T14:54:23.782Z,100115.31
2023-04-18T14:56:51.701Z,100115.44
2023-04-18T14:59:19.236Z,100110.75
2023-04-18T15:01:46.905Z,100104.59
2023-04-18T15:04:15.044Z,100104.25
2023-04-18T15:06:42.579Z,100109.84
2023-04-18T15:09:09.700Z,100108.94
2023-04-18T15:11:37.550Z,100108.66
2023-04-18T15:14:04.814Z,100122.59
2023-04-18T15:16:32.212Z,100110.78
2023-04-18T15:19:00.477Z,100115.56
2023-04-18T15:21:27.770Z,100111.56
2023-04-18T15:23:55.009Z,100110.50
2023-04-18T15:26:22.465Z,100110.09
2023-04-18T15:28:49.928Z,100104.75
2023-04-18T15:32:56.116Z,100101.81
2023-04-18T15:35:24.446Z,100101.81
2023-04-18T15:37:53.785Z,100107.53
2023-04-18T15:40:21.022Z,100107.19
2023-04-18T15:42:51.050Z,100111.56
2023-04-18T15:45:18.712Z,100094.78
2023-04-18T15:47:46.171Z,100106.69
2023-04-18T15:50:16.409Z,100107.47
2023-04-18T15:52:44.121Z,100111.13
2023-04-18T15:55:13.232Z,100116.13
2023-04-18T15:57:41.876Z,100119.09
2023-04-18T16:00:20.911Z,100115.75
2023-04-18T16:02:48.768Z,100123.00
2023-04-18T16:05:16.320Z,100123.31
2023-04-18T16:07:43.954Z,100128.13
2023-04-18T16:10:12.962Z,100121.41
2023-04-18T16:12:40.750Z,100128.59
2023-04-18T16:15:10.137Z,100128.41
2023-04-18T16:17:38.280Z,100133.75
2023-04-18T16:20:08.314Z,100138.19
2023-04-18T16:22:36.652Z,100127.84
2023-04-18T16:25:07.480Z,100133.00
2023-04-18T16:27:34.725Z,100133.84
2023-04-18T16:30:03.243Z,100134.84
2023-04-18T16:32:31.087Z,100138.87
2023-04-18T16:34:58.668Z,100133.88
2023-04-18T16:37:26.080Z,100140.53
2023-04-18T16:39:53.722Z,100138.84
2023-04-18T16:42:21.194Z,100137.84
2023-04-18T16:44:48.754Z,100141.50
2023-04-18T16:47:16.339Z,100134.50
2023-04-18T16:49:44.954Z,100137.81
2023-04-18T16:52:12.238Z,100138.00
2023-04-18T16:54:40.372Z,100141.50
2023-04-18T16:57:09.797Z,100147.19
2023-04-18T16:59:37.095Z,100146.19
2023-04-18T17:02:04.725Z,100134.00
2023-04-18T17:04:32.266Z,100144.84
2023-04-18T17:07:00.811Z,100138.50
2023-04-18T17:09:28.634Z,100146.03
2023-04-18T17:11:56.337Z,100141.66
2023-04-18T17:14:23.950Z,100142.84
2023-04-18T17:16:53.520Z,100149.84
2023-04-18T17:19:21.444Z,100147.84
2023-04-18T17:21:51.027Z,100140.16
2023-04-18T17:24:19.280Z,100143.34
2023-04-18T17:26:48.014Z,100135.13
2023-04-18T17:29:16.379Z,100144.09
2023-04-18T17:31:45.286Z,100147.50
2023-04-18T17:34:13.234Z,100152.47
2023-04-18T17:36:40.757Z,100151.56
2023-04-18T17:39:09.721Z,100157.53
2023-04-18T17:41:39.236Z,100162.66
2023-04-18T17:44:08.480Z,100157.12
2023-04-18T17:46:37.012Z,100163.47
2023-04-18T17:49:05.504Z,100161.75
2023-04-18T17:51:33.406Z,100165.50
2023-04-18T17:54:04.464Z,100165.31
2023-04-18T17:56:33.126Z,100167.22
2023-04-18T17:59:02.446Z,100167.47
2023-04-18T18:05:03.849Z,100170.22
2023-04-18T18:07:37.936Z,100177.38
2023-04-18T18:10:12.773Z,100177.59
2023-04-18T18:12:42.944Z,100177.19
2023-04-18T18:15:11.705Z,100180.06
2023-04-18T18:17:39.436Z,100180.66
2023-04-18T18:20:10.152Z,100179.59
2023-04-18T18:22:38.284Z,100184.16
2023-04-18T18:25:09.375Z,100187.81
2023-04-18T18:27:37.538Z,100174.84
2023-04-18T18:30:08.844Z,100183.53
2023-04-18T18:32:40.621Z,100191.25
2023-04-18T18:35:11.122Z,100190.69
2023-04-18T18:37:42.898Z,100185.16
2023-04-18T18:40:16.042Z,100186.28
2023-04-18T18:42:45.300Z,100187.53
2023-04-18T18:45:13.724Z,100182.81
2023-04-18T18:47:41.306Z,100185.19
2023-04-18T18:50:13.340Z,100181.03
2023-04-18T18:52:46.080Z,100190.50
2023-04-18T18:55:18.021Z,100184.50
2023-04-18T18:57:50.117Z,100183.81
2023-04-18T19:00:21.224Z,100188.28
2023-04-18T19:02:49.187Z,100189.66
2023-04-18T19:05:22.693Z,100192.87
2023-04-18T19:07:51.999Z,100188.00
2023-04-18T19:10:26.123Z,100186.37
2023-04-18T19:12:54.069Z,100188.72
2023-04-18T19:15:23.360Z,100191.69
2023-04-18T19:21:23.107Z,100201.81
2023-04-18T19:23:57.694Z,100206.19
2023-04-18T19:26:26.008Z,100210.94
2023-04-18T19:28:54.712Z,100205.97
2023-04-18T19:31:28.443Z,100219.28
2023-04-18T19:33:58.268Z,100223.66
2023-04-18T19:39:59.588Z,100235.94
2023-04-18T19:42:27.431Z,100246.91
2023-04-18T19:44:56.323Z,100252.16
2023-04-18T19:47:24.688Z,100240.59
2023-04-18T19:53:12.523Z,100260.69
2023-04-18T19:55:45.855Z,100255.19
2023-04-18T19:58:35.292Z,100251.72
2023-04-18T20:01:08.900Z,100259.09
2023-04-18T20:03:37.691Z,100262.09
2023-04-18T20:06:06.893Z,100255.69
2023-04-18T20:08:36.974Z,100260.59
2023-04-18T20:11:08.344Z,100251.28
2023-04-18T20:13:37.500Z,100257.44
2023-04-18T20:16:09.624Z,100257.69
2023-04-18T20:18:39.972Z,100254.34
2023-04-18T20:21:11.316Z,100254.34
2023-04-18T20:23:42.746Z,100257.69
2023-04-18T20:26:11.086Z,100261.16
2023-04-18T20:28:39.276Z,100270.25
2023-04-18T20:31:07.763Z,100264.56
2023-04-18T20:33:38.057Z,100258.84
2023-04-18T20:36:07.113Z,100271.53
2023-04-18T20:38:35.142Z,100267.22
2023-04-18T20:41:04.360Z,100261.59
2023-04-18T20:43:37.386Z,100266.03
2023-04-18T20:46:07.927Z,100267.87
2023-04-18T20:48:36.000Z,100260.91
2023-04-18T20:51:03.625Z,100254.03
2023-04-18T20:53:32.160Z,100247.63
2023-04-18T20:56:05.551Z,100247.91
2023-04-18T20:58:33.316Z,100250.03
2023-04-18T21:01:00.540Z,100252.28
2023-04-18T21:03:28.469Z,100258.03
2023-04-18T21:05:56.207Z,100272.25
2023-04-18T21:08:23.467Z,100260.81
2023-04-18T21:10:50.677Z,100257.59
2023-04-18T21:13:18.115Z,100262.34
2023-04-18T21:15:45.388Z,100253.28
2023-04-18T21:18:12.627Z,100256.63
2023-04-18T21:20:40.067Z,100251.34
2023-04-18T21:23:07.296Z,100258.59
2023-04-18T21:25:34.522Z,100260.16
2023-04-18T21:28:02.468Z,100252.78
2023-04-18T21:30:29.712Z,100257.09
2023-04-18T21:32:57.035Z,100253.59
2023-04-18T21:35:25.104Z,100248.84
2023-04-18T21:37:52.383Z,100248.84
2023-04-18T21:40:19.687Z,100244.94
2023-04-18T21:42:48.159Z,100246.63
2023-04-18T21:45:17.627Z,100248.88
2023-04-18T21:47:44.827Z,100246.66
2023-04-18T21:53:43.195Z,100245.50
2023-04-18T21:56:11.080Z,100242.19
2023-04-18T21:58:38.413Z,100238.00
2023-04-18T22:01:05.714Z,100242.75
2023-04-18T22:03:34.242Z,100245.66
2023-04-18T22:06:01.799Z,100238.84
2023-04-18T22:08:29.592Z,100236.50
2023-04-18T22:10:59.050Z,100239.97
2023-04-18T22:13:33.266Z,100239.53
2023-04-18T22:16:04.903Z,100234.50
2023-04-18T22:18:34.044Z,100239.41
2023-04-18T22:21:03.376Z,100237.44
2023-04-18T22:23:30.872Z,100237.19
2023-04-18T22:25:58.149Z,100238.28
2023-04-18T22:28:27.959Z,100235.62
2023-04-18T22:30:55.426Z,100238.28
2023-04-18T22:33:22.654Z,100226.84
2023-04-18T22:35:50.391Z,100224.75
2023-04-18T22:38:17.651Z,100230.19
2023-04-18T22:40:44.891Z,100224.06
2023-04-18T22:43:12.433Z,100220.69
2023-04-18T22:45:39.943Z,100221.25
2023-04-18T22:48:11.428Z,100221.00
2023-04-18T22:50:42.700Z,100215.44
2023-04-18T22:53:14.404Z,100217.94
2023-04-18T22:55:43.479Z,100208.16
2023-04-18T22:58:11.408Z,100213.47
2023-04-18T23:00:38.609Z,100209.84
2023-04-18T23:03:06.318Z,100209.28
2023-04-18T23:05:34.417Z,100203.84
2023-04-18T23:08:01.913Z,100195.06
2023-04-18T23:10:29.464Z,100189.75
2023-04-18T23:12:57.015Z,100193.97
2023-04-18T23:15:26.296Z,100190.03
2023-04-18T23:17:54.277Z,100184.59
2023-04-18T23:20:21.899Z,100181.81
2023-04-18T23:22:51.592Z,100185.28
2023-04-18T23:25:22.589Z,100184.59
2023-04-18T23:27:50.005Z,100181.97
2023-04-18T23:30:17.350Z,100175.56
2023-04-18T23:32:44.908Z,100174.84
2023-04-18T23:35:12.161Z,100159.91
2023-04-18T23:37:39.332Z,100163.28
2023-04-18T23:40:08.091Z,100163.56
2023-04-18T23:42:35.867Z,100161.03
2023-04-18T23:45:04.141Z,100156.44
2023-04-18T23:47:31.875Z,100159.66
2023-04-18T23:49:59.078Z,100146.81
2023-04-18T23:52:26.220Z,100139.97
2023-04-18T23:54:53.786Z,100147.91
2023-04-18T23:57:21.050Z,100138.69
2023-04-18T23:59:48.259Z,100129.38
